Flugwetter

[source: ADDS]
METAR
LOWL 201820Z AUTO 12004KT 9999 NSC 27/13 Q1018 NOSIG =
TAF
TAF LOWL 201715Z 2018/2118 VRB02KT CAVOK TX29/2113Z TN16/2103Z BECMG 2107/2109 27007KT 9999 FEW050 BECMG 2113/2115 FEW050CB PROB30 TEMPO 2115/2118 29015G25KT TSRA FEW040CB BKN045 =